Time;durP1;ratioP1;P1;durP2;ratioP2;P2;SDS_P1;SDS_P2;PMS_P1;PMS_P2;Temp;Humidity;BMP_temperature;BMP_pressure;BME280_temperature;BME280_humidity;BME280_pressure;Samples;Min_cycle;Max_cycle;Signal;HPM_P1;HPM_P2
2023/04/15 00:01:23;;;;;;;6.85;4.75;;;;;;;5.69;83.03;100266.69;5014363;28;20033;-71
2023/04/15 00:03:53;;;;;;;9.40;4.15;;;;;;;5.62;83.39;100258.13;5017097;28;20033;-71
2023/04/15 00:06:19;;;;;;;13.65;4.28;;;;;;;5.59;84.26;100257.25;5015347;28;20044;-71
2023/04/15 00:08:45;;;;;;;11.82;4.13;;;;;;;5.59;83.67;100252.13;5018076;28;20046;-71
2023/04/15 00:11:11;;;;;;;13.02;4.30;;;;;;;5.54;84.55;100251.25;5026358;28;20052;-71
2023/04/15 00:13:37;;;;;;;9.95;3.95;;;;;;;5.51;84.36;100259.81;5021550;28;20087;-71
2023/04/15 00:16:02;;;;;;;13.80;4.43;;;;;;;5.50;84.50;100259.78;5019815;28;20120;-70
2023/04/15 00:18:28;;;;;;;11.45;5.22;;;;;;;5.47;84.26;100263.19;5013402;28;20086;-71
2023/04/15 00:20:54;;;;;;;14.80;5.35;;;;;;;5.41;85.24;100272.56;5018088;28;20069;-70
2023/04/15 00:23:19;;;;;;;9.43;4.53;;;;;;;5.37;85.19;100279.38;5016944;28;20034;-71
2023/04/15 00:25:45;;;;;;;8.05;3.30;;;;;;;5.40;84.47;100281.94;5011575;28;20042;-70
2023/04/15 00:28:11;;;;;;;9.55;4.65;;;;;;;5.50;84.74;100275.16;5016544;28;20034;-70
2023/04/15 00:30:36;;;;;;;8.45;3.55;;;;;;;5.49;83.75;100269.16;5030064;28;20044;-71
2023/04/15 00:33:02;;;;;;;9.57;3.90;;;;;;;5.46;83.97;100271.72;5032994;28;20897;-71
2023/04/15 00:35:28;;;;;;;11.18;4.50;;;;;;;5.44;83.57;100270.88;5020090;28;20052;-71
2023/04/15 00:37:53;;;;;;;7.25;3.33;;;;;;;5.41;83.66;100268.28;5022371;28;20037;-71
2023/04/15 00:40:20;;;;;;;8.38;3.83;;;;;;;5.41;83.57;100265.72;5022442;28;20065;-71
2023/04/15 00:42:46;;;;;;;8.60;3.83;;;;;;;5.38;84.02;100273.41;5020092;28;20068;-71
2023/04/15 00:45:11;;;;;;;8.60;3.72;;;;;;;5.36;83.95;100264.88;5020118;28;20079;-71
2023/04/15 00:47:40;;;;;;;6.55;3.17;;;;;;;5.34;83.75;100268.28;5021550;28;20525;-71
2023/04/15 00:50:06;;;;;;;6.32;3.42;;;;;;;5.30;83.36;100263.97;5020268;28;20038;-71
2023/04/15 00:52:31;;;;;;;7.60;3.83;;;;;;;5.30;83.50;100261.41;5011839;28;20029;-70
2023/04/15 00:54:57;;;;;;;6.43;3.45;;;;;;;5.28;83.34;100263.13;5018581;28;20041;-71
2023/04/15 00:57:22;;;;;;;8.23;3.60;;;;;;;5.26;82.93;100268.22;5028254;28;20033;-71
2023/04/15 00:59:48;;;;;;;10.20;3.90;;;;;;;5.28;84.09;100270.81;5022974;28;20050;-71
2023/04/15 01:02:14;;;;;;;11.77;3.85;;;;;;;5.27;84.14;100258.84;5018394;28;20110;-71
2023/04/15 01:04:40;;;;;;;9.63;3.90;;;;;;;5.21;83.36;100267.34;5015151;28;20033;-70
2023/04/15 01:07:05;;;;;;;10.02;4.30;;;;;;;5.15;84.05;100259.63;5017273;28;21304;-71
2023/04/15 01:09:32;;;;;;;7.20;3.38;;;;;;;5.13;84.09;100266.47;5019114;28;20121;-71
2023/04/15 01:11:57;;;;;;;7.55;3.75;;;;;;;5.09;84.08;100262.16;5018312;28;20134;-70
2023/04/15 01:14:22;;;;;;;11.05;3.40;;;;;;;5.05;83.95;100268.09;5016282;28;20048;-71
2023/04/15 01:16:48;;;;;;;9.80;3.60;;;;;;;5.00;83.72;100259.53;5016069;28;20766;-71
2023/04/15 01:19:16;;;;;;;7.40;3.55;;;;;;;4.96;84.01;100260.34;5020032;28;20036;-72
2023/04/15 01:21:42;;;;;;;6.22;3.47;;;;;;;4.90;84.51;100257.75;5017981;28;20755;-71
2023/04/15 01:24:09;;;;;;;9.40;3.80;;;;;;;4.86;85.31;100264.59;5023137;28;20132;-70
2023/04/15 01:26:37;;;;;;;6.60;3.47;;;;;;;4.83;85.35;100256.88;5014878;28;20048;-71
2023/04/15 01:29:02;;;;;;;6.38;3.80;;;;;;;4.79;84.97;100260.25;5018534;28;20033;-71
2023/04/15 01:31:28;;;;;;;9.85;4.05;;;;;;;4.77;85.23;100261.09;5032222;28;20029;-71
2023/04/15 01:33:53;;;;;;;10.02;3.63;;;;;;;4.74;85.32;100254.25;5015996;28;20041;-71
2023/04/15 01:36:18;;;;;;;11.48;3.83;;;;;;;4.72;85.38;100265.31;5016323;28;20560;-71
2023/04/15 01:38:44;;;;;;;5.63;3.45;;;;;;;4.69;85.64;100276.41;4997305;28;20115;-71
2023/04/15 01:41:10;;;;;;;7.03;4.10;;;;;;;4.64;86.04;100267.84;5005072;28;20061;-70
2023/04/15 01:43:36;;;;;;;8.77;4.15;;;;;;;4.60;86.38;100263.53;5020997;28;20513;-71
2023/04/15 01:46:02;;;;;;;8.68;4.05;;;;;;;4.54;86.27;100261.78;5022291;28;20079;-71
2023/04/15 01:48:27;;;;;;;11.50;4.50;;;;;;;4.45;87.38;100256.59;5013893;28;20101;-71
2023/04/15 01:50:56;;;;;;;7.95;4.65;;;;;;;4.36;87.26;100264.19;5028387;28;20804;-71
2023/04/15 01:53:21;;;;;;;7.68;4.53;;;;;;;4.25;87.67;100258.13;5012419;28;20511;-71
2023/04/15 01:55:46;;;;;;;9.63;4.03;;;;;;;4.19;87.55;100267.44;5023349;28;20144;-71
2023/04/15 01:58:12;;;;;;;9.88;4.95;;;;;;;4.16;88.33;100265.72;5015395;28;20116;-70
2023/04/15 02:00:40;;;;;;;8.75;3.75;;;;;;;4.16;88.29;100259.75;5017448;28;20034;-71
2023/04/15 02:03:06;;;;;;;8.15;4.40;;;;;;;4.17;88.06;100266.59;5020118;28;20026;-71
2023/04/15 02:05:31;;;;;;;7.00;3.55;;;;;;;4.15;88.46;100258.03;5018123;28;20047;-71
2023/04/15 02:07:56;;;;;;;12.48;4.55;;;;;;;4.15;89.01;100255.50;5022796;28;20035;-71
2023/04/15 02:10:22;;;;;;;9.10;4.72;;;;;;;4.13;89.17;100255.47;5017399;28;20497;-71
2023/04/15 02:12:47;;;;;;;6.90;4.07;;;;;;;4.13;89.56;100258.00;5018766;28;21119;-71
2023/04/15 02:15:13;;;;;;;8.98;4.38;;;;;;;4.13;88.67;100259.72;5016128;28;20033;-71
2023/04/15 02:17:38;;;;;;;10.57;4.38;;;;;;;4.12;89.61;100263.13;5016534;28;20116;-71
2023/04/15 02:20:07;;;;;;;9.88;4.43;;;;;;;4.08;89.18;100268.22;5012377;28;20152;-70
2023/04/15 02:22:33;;;;;;;6.60;4.45;;;;;;;4.07;89.38;100263.06;5018266;28;20030;-70
2023/04/15 02:24:59;;;;;;;8.13;4.40;;;;;;;4.05;89.38;100263.06;5015885;28;20033;-71
2023/04/15 02:27:24;;;;;;;7.10;3.40;;;;;;;4.04;89.32;100268.16;5012780;28;20123;-70
2023/04/15 02:29:52;;;;;;;8.45;4.10;;;;;;;4.05;90.30;100269.88;5011714;28;20034;-70
2023/04/15 02:32:18;;;;;;;11.25;5.10;;;;;;;4.01;89.57;100269.00;5014737;28;20499;-71
2023/04/15 02:34:44;;;;;;;9.88;4.07;;;;;;;3.95;89.59;100271.47;5016866;28;20029;-70
2023/04/15 02:37:10;;;;;;;11.18;3.75;;;;;;;3.93;90.04;100272.31;5016702;28;20432;-70
2023/04/15 02:39:36;;;;;;;7.47;3.95;;;;;;;3.91;89.69;100274.84;5020906;28;20486;-70
2023/04/15 02:42:02;;;;;;;11.20;4.28;;;;;;;3.95;89.76;100270.63;5025551;28;20045;-70
2023/04/15 02:44:27;;;;;;;7.63;4.30;;;;;;;3.91;89.99;100274.84;5025360;28;20498;-71
2023/04/15 02:46:53;;;;;;;10.57;3.63;;;;;;;3.88;89.98;100279.94;5017969;28;20029;-71
2023/04/15 02:49:22;;;;;;;8.25;3.90;;;;;;;3.84;90.54;100285.84;5017932;28;20107;-71
2023/04/15 02:51:48;;;;;;;11.30;4.35;;;;;;;3.80;90.50;100281.53;5018887;28;20036;-70
2023/04/15 02:54:24;;;;;;;7.45;3.58;;;;;;;3.77;90.41;100286.63;5016169;28;20456;-70
2023/04/15 02:56:49;;;;;;;8.32;3.90;;;;;;;3.75;90.63;100285.75;5015678;28;20140;-70
2023/04/15 02:59:15;;;;;;;7.90;3.60;;;;;;;3.73;90.73;100281.47;5010921;28;20062;-71
2023/04/15 03:01:40;;;;;;;7.38;3.72;;;;;;;3.71;91.25;100278.88;5015186;28;20025;-70
2023/04/15 03:04:08;;;;;;;7.80;4.35;;;;;;;3.70;91.53;100276.31;5015156;28;20049;-70
2023/04/15 03:06:34;;;;;;;6.32;3.30;;;;;;;3.70;91.19;100282.31;5014683;28;20969;-70
2023/04/15 03:09:01;;;;;;;7.82;3.60;;;;;;;3.70;91.56;100277.19;5013840;28;20046;-70
2023/04/15 03:11:28;;;;;;;11.73;4.65;;;;;;;3.73;91.77;100279.78;5011592;28;20831;-70
2023/04/15 03:13:53;;;;;;;11.35;4.68;;;;;;;3.78;91.95;100288.34;5020396;28;20036;-70
2023/04/15 03:16:19;;;;;;;7.63;4.18;;;;;;;3.77;91.48;100293.44;5020967;28;20041;-70
2023/04/15 03:18:44;;;;;;;9.27;4.32;;;;;;;3.71;91.94;100290.81;5025314;28;20127;-70
2023/04/15 03:21:09;;;;;;;8.13;4.43;;;;;;;3.68;92.14;100291.63;5015360;28;20033;-70
2023/04/15 03:23:35;;;;;;;9.45;4.07;;;;;;;3.67;92.38;100289.06;5016973;28;20855;-70
2023/04/15 03:26:04;;;;;;;5.90;3.53;;;;;;;3.67;92.52;100295.03;5016095;28;20041;-70
2023/04/15 03:28:30;;;;;;;10.70;5.07;;;;;;;3.69;93.13;100297.59;5015450;28;20144;-70
2023/04/15 03:30:55;;;;;;;6.07;3.55;;;;;;;3.64;92.35;100295.00;5013620;28;20332;-70
2023/04/15 03:33:21;;;;;;;8.27;3.80;;;;;;;3.59;92.50;100296.63;5018521;28;20042;-70
2023/04/15 03:35:46;;;;;;;7.15;4.00;;;;;;;3.56;92.95;100301.69;5007967;28;20036;-70
2023/04/15 03:38:11;;;;;;;6.80;3.50;;;;;;;3.54;92.52;100303.38;5023572;28;20052;-71
2023/04/15 03:40:40;;;;;;;10.77;4.22;;;;;;;3.49;92.98;100305.91;5024158;28;20658;-71
2023/04/15 03:43:05;;;;;;;6.93;3.58;;;;;;;3.47;92.83;100306.69;5020992;28;20124;-70
2023/04/15 03:45:31;;;;;;;7.35;3.88;;;;;;;3.45;92.81;100311.81;5022234;28;20927;-70
2023/04/15 03:47:56;;;;;;;7.00;4.00;;;;;;;3.41;92.80;100312.59;5019588;28;20041;-70
2023/04/15 03:50:22;;;;;;;9.27;4.40;;;;;;;3.41;92.59;100311.72;5014299;28;20578;-70
2023/04/15 03:52:47;;;;;;;9.95;4.25;;;;;;;3.42;93.17;100316.00;5020077;28;20587;-70
2023/04/15 03:55:13;;;;;;;9.00;4.22;;;;;;;3.33;93.06;100315.88;5012933;28;20029;-70
2023/04/15 03:57:38;;;;;;;10.40;5.22;;;;;;;3.27;93.72;100314.09;5009050;28;20601;-70
2023/04/15 04:00:05;;;;;;;6.85;4.00;;;;;;;3.26;94.15;100311.56;5014459;28;20038;-70
2023/04/15 04:02:30;;;;;;;13.10;4.85;;;;;;;3.23;94.36;100319.16;5013028;28;20041;-70
2023/04/15 04:04:56;;;;;;;8.07;3.83;;;;;;;3.21;93.85;100314.03;5017288;28;20044;-70
2023/04/15 04:07:22;;;;;;;11.52;4.63;;;;;;;3.24;94.81;100324.28;5021985;28;20106;-70
2023/04/15 04:09:48;;;;;;;8.43;4.30;;;;;;;3.24;94.27;100325.97;5020690;28;20495;-70
2023/04/15 04:12:13;;;;;;;9.75;3.55;;;;;;;3.23;94.15;100326.81;5015950;28;20040;-70
2023/04/15 04:14:39;;;;;;;7.82;3.67;;;;;;;3.23;94.51;100321.72;5010438;28;20121;-70
2023/04/15 04:17:04;;;;;;;6.90;3.17;;;;;;;3.22;94.30;100315.75;5012235;28;20061;-70
2023/04/15 04:19:30;;;;;;;8.00;4.00;;;;;;;3.22;94.65;100318.31;5020797;28;20030;-70
2023/04/15 04:21:55;;;;;;;8.80;4.20;;;;;;;3.23;94.12;100321.72;5027909;28;20505;-70
2023/04/15 04:24:21;;;;;;;6.28;3.40;;;;;;;3.25;94.89;100322.59;5012808;28;20697;-70
2023/04/15 04:26:47;;;;;;;9.63;3.58;;;;;;;3.25;94.57;100323.44;5014124;28;20164;-70
2023/04/15 04:29:12;;;;;;;8.80;3.97;;;;;;;3.24;94.30;100319.16;5017242;28;20029;-70
2023/04/15 04:31:38;;;;;;;7.03;3.40;;;;;;;3.23;94.99;100322.56;5022996;28;20092;-70
2023/04/15 04:34:03;;;;;;;6.28;3.28;;;;;;;3.22;93.97;100320.84;5017965;28;20045;-70
2023/04/15 04:36:28;;;;;;;9.55;3.58;;;;;;;3.23;94.63;100330.22;5017568;28;20049;-70
2023/04/15 04:38:54;;;;;;;10.75;4.45;;;;;;;3.25;94.35;100336.22;5019939;28;20040;-70
2023/04/15 04:41:20;;;;;;;7.72;4.20;;;;;;;3.27;94.68;100334.53;5021723;28;20041;-70
2023/04/15 04:43:45;;;;;;;12.07;4.95;;;;;;;3.29;93.96;100337.13;5013387;28;20065;-70
2023/04/15 04:46:11;;;;;;;10.90;4.97;;;;;;;3.33;93.75;100331.22;5019337;28;20037;-70
2023/04/15 04:48:36;;;;;;;12.70;4.90;;;;;;;3.35;94.17;100337.22;5030496;28;20033;-70
2023/04/15 04:51:02;;;;;;;9.32;4.68;;;;;;;3.32;93.45;100338.00;5020947;28;20029;-70
2023/04/15 04:53:28;;;;;;;11.52;4.93;;;;;;;3.31;93.98;100343.97;5015488;28;20117;-70
2023/04/15 04:55:53;;;;;;;9.40;4.43;;;;;;;3.30;93.67;100342.25;5019944;28;20541;-69
2023/04/15 04:58:18;;;;;;;13.63;4.57;;;;;;;3.32;93.47;100348.22;5011087;28;20038;-70
2023/04/15 05:00:44;;;;;;;10.45;5.15;;;;;;;3.31;93.87;100343.09;5020016;28;20041;-70
2023/04/15 05:03:10;;;;;;;9.73;5.70;;;;;;;3.32;93.65;100355.06;5017810;28;20029;-70
2023/04/15 05:05:38;;;;;;;7.82;5.63;;;;;;;3.31;93.00;100358.44;5003352;28;20033;-69
2023/04/15 05:08:04;;;;;;;7.72;6.15;;;;;;;3.31;92.79;100363.53;5026903;28;20037;-70
2023/04/15 05:10:30;;;;;;;10.80;6.15;;;;;;;3.30;93.46;100360.13;5023434;28;20029;-70
2023/04/15 05:12:55;;;;;;;11.27;5.90;;;;;;;3.31;93.26;100361.84;4997637;28;20296;-70
2023/04/15 05:15:20;;;;;;;8.90;5.03;;;;;;;3.32;93.17;100361.00;5012528;28;20049;-70
2023/04/15 05:17:46;;;;;;;11.57;4.88;;;;;;;3.36;93.60;100367.88;5026270;28;20681;-70
2023/04/15 05:20:12;;;;;;;17.88;4.57;;;;;;;3.38;93.00;100373.00;5015029;28;20053;-70
2023/04/15 05:22:37;;;;;;;9.05;5.32;;;;;;;3.40;92.55;100369.66;5016999;28;20064;-70
2023/04/15 05:25:03;;;;;;;10.52;5.03;;;;;;;3.46;92.38;100374.84;5012910;28;20034;-70
2023/04/15 05:27:29;;;;;;;11.15;4.95;;;;;;;3.54;92.12;100375.78;5010337;28;20626;-70
2023/04/15 05:29:55;;;;;;;10.32;4.50;;;;;;;3.65;91.69;100381.03;5008604;28;20521;-70
2023/04/15 05:32:20;;;;;;;12.57;4.53;;;;;;;3.76;91.27;100376.09;5014001;28;20045;-70
2023/04/15 05:34:46;;;;;;;11.60;5.15;;;;;;;3.86;91.48;100367.66;5016991;28;20029;-70
2023/04/15 05:37:12;;;;;;;6.22;3.75;;;;;;;3.98;90.95;100370.38;5020319;28;20101;-69
2023/04/15 05:39:37;;;;;;;5.63;3.80;;;;;;;4.12;90.06;100376.53;5024819;28;20184;-70
2023/04/15 05:42:04;;;;;;;10.88;4.55;;;;;;;4.26;90.14;100374.97;5022536;28;20033;-70
2023/04/15 05:44:30;;;;;;;7.75;3.97;;;;;;;4.43;90.00;100378.56;5017873;28;20076;-70
2023/04/15 05:46:55;;;;;;;7.93;4.32;;;;;;;4.59;89.95;100383.00;5020747;28;20105;-70
2023/04/15 05:49:21;;;;;;;10.68;5.28;;;;;;;4.77;89.21;100386.56;5017555;28;20036;-70
2023/04/15 05:51:47;;;;;;;11.18;4.30;;;;;;;4.94;88.43;100388.41;5015073;28;20041;-70
2023/04/15 05:54:12;;;;;;;7.47;4.55;;;;;;;5.11;87.98;100391.94;5012428;28;20060;-70
2023/04/15 05:56:38;;;;;;;8.98;4.80;;;;;;;5.33;87.34;100394.69;5011589;28;20510;-70
2023/04/15 05:59:03;;;;;;;9.45;4.13;;;;;;;5.52;87.09;100389.66;5015679;28;20041;-70
2023/04/15 06:01:29;;;;;;;6.95;4.53;;;;;;;5.71;86.55;100383.78;5016266;28;20133;-70
2023/04/15 06:03:54;;;;;;;10.20;3.95;;;;;;;5.93;85.79;100391.59;5011961;28;20048;-70
2023/04/15 06:06:20;;;;;;;7.55;3.85;;;;;;;6.11;84.77;100397.63;5017636;28;20034;-70
2023/04/15 06:08:45;;;;;;;6.82;3.67;;;;;;;6.25;84.30;100413.09;5013513;28;20212;-70
2023/04/15 06:11:11;;;;;;;9.68;4.68;;;;;;;6.34;83.93;100419.13;5017766;28;20033;-69
2023/04/15 06:13:36;;;;;;;10.52;5.00;;;;;;;6.35;84.83;100432.78;5016891;28;20025;-69
2023/04/15 06:16:02;;;;;;;11.32;4.95;;;;;;;6.24;85.56;100425.06;5015199;28;20590;-69
2023/04/15 06:18:28;;;;;;;8.90;4.38;;;;;;;6.27;85.02;100419.94;5013254;28;20038;-70
2023/04/15 06:20:53;;;;;;;11.93;4.63;;;;;;;6.27;83.84;100421.66;5015001;28;20113;-70
2023/04/15 06:23:19;;;;;;;8.98;4.22;;;;;;;6.32;83.56;100423.38;5012785;28;20368;-70
2023/04/15 06:25:44;;;;;;;11.88;4.07;;;;;;;6.44;82.57;100419.97;5012659;28;20043;-69
2023/04/15 06:28:10;;;;;;;8.30;4.38;;;;;;;6.51;82.58;100429.44;5015547;28;20513;-70
2023/04/15 06:30:35;;;;;;;16.48;4.85;;;;;;;6.53;82.00;100421.72;5016723;28;20041;-70
2023/04/15 06:33:04;;;;;;;9.73;4.70;;;;;;;6.61;81.91;100420.91;5019863;28;20037;-70
2023/04/15 06:35:29;;;;;;;8.55;4.15;;;;;;;6.73;81.22;100425.22;5008954;28;20132;-69
2023/04/15 06:37:55;;;;;;;10.35;5.45;;;;;;;6.87;80.63;100424.38;5013189;28;20454;-69
2023/04/15 06:40:21;;;;;;;7.70;3.65;;;;;;;6.99;79.68;100417.50;5020961;28;20060;-69
2023/04/15 06:42:46;;;;;;;8.88;4.55;;;;;;;7.13;79.46;100413.22;5012880;28;20037;-69
2023/04/15 06:45:11;;;;;;;8.52;3.85;;;;;;;7.27;79.36;100414.09;5016530;28;20060;-68
2023/04/15 06:47:37;;;;;;;8.35;4.13;;;;;;;7.35;78.34;100409.84;5016757;28;20573;-69
2023/04/15 06:50:03;;;;;;;9.63;4.30;;;;;;;7.49;77.37;100410.66;5014034;28;20033;-68
2023/04/15 06:52:28;;;;;;;9.73;4.00;;;;;;;7.62;77.31;100414.94;5018238;28;20490;-68
2023/04/15 06:54:54;;;;;;;7.25;4.15;;;;;;;7.80;76.63;100412.28;5016469;28;20033;-69
2023/04/15 06:57:19;;;;;;;10.27;4.50;;;;;;;7.92;75.46;100412.25;5017298;28;20080;-69
2023/04/15 06:59:45;;;;;;;9.50;4.88;;;;;;;8.14;75.77;100413.03;5014852;28;20045;-69
2023/04/15 07:02:13;;;;;;;8.88;4.40;;;;;;;8.33;74.24;100406.97;5015201;28;20141;-69
2023/04/15 07:04:39;;;;;;;10.10;4.85;;;;;;;8.54;73.69;100403.41;5017498;28;20029;-69
2023/04/15 07:07:04;;;;;;;9.23;4.45;;;;;;;8.46;72.76;100395.72;5017399;28;20090;-68
2023/04/15 07:09:31;;;;;;;11.43;5.22;;;;;;;8.47;72.67;100384.56;5014832;28;20495;-69
2023/04/15 07:11:56;;;;;;;9.80;4.90;;;;;;;8.66;72.23;100384.44;5018911;28;20057;-69
2023/04/15 07:14:22;;;;;;;9.82;5.10;;;;;;;8.80;72.07;100382.63;5018313;28;20132;-69
2023/04/15 07:16:47;;;;;;;15.07;4.95;;;;;;;9.15;71.42;100375.44;5022989;28;20029;-69
2023/04/15 07:19:12;;;;;;;12.25;5.53;;;;;;;9.18;70.81;100374.56;5020301;28;20049;-69
2023/04/15 07:21:38;;;;;;;9.40;5.80;;;;;;;9.20;71.25;100388.31;5014883;28;20042;-69
2023/04/15 07:24:04;;;;;;;9.77;5.78;;;;;;;9.42;71.31;100380.34;5015157;28;20037;-69
2023/04/15 07:26:29;;;;;;;9.25;5.10;;;;;;;9.46;70.04;100368.28;5020518;28;20453;-69
2023/04/15 07:28:55;;;;;;;9.68;5.60;;;;;;;9.57;71.54;100390.56;5014346;28;20044;-70
2023/04/15 07:31:20;;;;;;;9.90;5.10;;;;;;;9.62;70.26;100375.00;5015529;28;20084;-69
2023/04/15 07:33:46;;;;;;;11.45;5.93;;;;;;;9.54;71.69;100402.59;5018148;28;20042;-69
2023/04/15 07:36:12;;;;;;;13.35;7.03;;;;;;;9.56;72.31;100419.75;5020639;28;20044;-67
2023/04/15 07:38:37;;;;;;;13.05;6.68;;;;;;;9.69;71.55;100423.13;5022438;28;20041;-67
2023/04/15 07:41:03;;;;;;;13.73;6.95;;;;;;;9.87;70.15;100399.69;5017726;28;20041;-67
2023/04/15 07:43:29;;;;;;;12.05;6.35;;;;;;;10.09;68.88;100362.41;5016474;28;20148;-67
2023/04/15 07:45:54;;;;;;;10.52;6.90;;;;;;;10.26;68.46;100369.06;5009044;28;20553;-66
2023/04/15 07:48:20;;;;;;;10.38;6.10;;;;;;;10.32;69.11;100385.34;5017933;28;20034;-67
2023/04/15 07:50:45;;;;;;;11.57;6.82;;;;;;;10.47;68.69;100377.41;5013220;28;21640;-68
2023/04/15 07:53:10;;;;;;;11.27;5.65;;;;;;;10.61;66.78;100321.19;5012469;28;20038;-66
2023/04/15 07:55:36;;;;;;;13.23;6.03;;;;;;;10.85;66.79;100339.75;5012657;28;20103;-67
2023/04/15 07:58:01;;;;;;;10.73;6.28;;;;;;;11.00;65.84;100329.16;5012406;28;20080;-67
2023/04/15 08:00:27;;;;;;;19.63;7.00;;;;;;;11.13;65.41;100321.16;5016341;28;20044;-67
2023/04/15 08:02:52;;;;;;;13.23;6.70;;;;;;;11.07;65.16;100308.34;5018418;28;20243;-67
2023/04/15 08:05:18;;;;;;;10.02;5.57;;;;;;;11.19;64.56;100318.47;5016907;28;20495;-67
2023/04/15 08:07:44;;;;;;;14.07;6.40;;;;;;;11.44;64.63;100325.81;5018110;28;20613;-67
2023/04/15 08:10:10;;;;;;;10.77;6.13;;;;;;;11.46;63.41;100304.19;5023716;28;20061;-67
2023/04/15 08:12:36;;;;;;;11.98;6.95;;;;;;;11.57;64.16;100314.34;5019236;28;20533;-67
2023/04/15 08:15:02;;;;;;;10.80;6.07;;;;;;;11.75;63.06;100299.28;5015742;28;20120;-67
2023/04/15 08:17:27;;;;;;;11.80;5.95;;;;;;;11.95;63.16;100306.66;5009203;28;20550;-67
2023/04/15 08:19:53;;;;;;;12.77;6.30;;;;;;;12.14;61.46;100281.22;5025783;28;20036;-67
2023/04/15 08:22:18;;;;;;;14.27;6.95;;;;;;;12.27;61.37;100291.25;5012911;28;20080;-67
2023/04/15 08:24:44;;;;;;;15.20;6.32;;;;;;;12.36;61.26;100285.00;5014642;28;20041;-67
2023/04/15 08:27:10;;;;;;;11.50;6.45;;;;;;;12.45;60.68;100283.06;5014720;28;20093;-67
2023/04/15 08:29:35;;;;;;;8.95;5.78;;;;;;;12.57;60.67;100284.50;5014064;28;20041;-67
2023/04/15 08:32:00;;;;;;;11.55;6.45;;;;;;;12.76;60.21;100295.28;5014814;28;20048;-67
2023/04/15 08:34:26;;;;;;;18.20;6.13;;;;;;;12.87;59.85;100294.13;5004657;28;20042;-67
2023/04/15 08:36:52;;;;;;;8.70;5.68;;;;;;;12.94;59.33;100279.22;5016283;28;20564;-67
2023/04/15 08:39:17;;;;;;;14.73;5.90;;;;;;;13.02;59.28;100286.88;5014442;28;20073;-67
2023/04/15 08:41:51;;;;;;;9.55;6.10;;;;;;;13.07;59.13;100295.38;5018936;28;20075;-67
2023/04/15 08:44:17;;;;;;;10.43;6.28;;;;;;;13.20;57.68;100274.28;5016839;28;20495;-67
2023/04/15 08:46:43;;;;;;;10.98;5.38;;;;;;;13.27;57.26;100260.22;5018826;28;20068;-67
2023/04/15 08:49:12;;;;;;;12.43;5.75;;;;;;;13.39;57.44;100275.44;5019509;28;20104;-67
2023/04/15 08:51:39;;;;;;;9.50;5.40;;;;;;;13.48;56.77;100266.56;5018829;28;20146;-67
2023/04/15 08:54:05;;;;;;;10.07;5.75;;;;;;;13.61;56.44;100256.69;5010534;28;20048;-67
2023/04/15 08:56:31;;;;;;;9.90;6.13;;;;;;;13.72;56.20;100265.00;5011071;28;20053;-67
2023/04/15 08:58:59;;;;;;;7.57;4.75;;;;;;;13.68;53.55;100216.66;5018652;28;20471;-67
2023/04/15 09:01:25;;;;;;;6.85;3.03;;;;;;;13.65;52.66;100211.56;5021465;28;20044;-66
2023/04/15 09:03:53;;;;;;;5.25;2.83;;;;;;;13.84;52.00;100202.28;5021334;28;20099;-67
2023/04/15 09:06:20;;;;;;;4.85;2.55;;;;;;;13.89;51.88;100203.03;5013832;28;20569;-67
2023/04/15 09:08:46;;;;;;;3.42;2.30;;;;;;;13.71;50.73;100204.41;5020471;28;20110;-67
2023/04/15 09:11:12;;;;;;;4.28;2.00;;;;;;;13.61;50.24;100196.94;5020400;28;20466;-66
2023/04/15 09:13:37;;;;;;;3.53;1.65;;;;;;;13.50;50.83;100229.25;5022114;28;20114;-66
2023/04/15 09:16:04;;;;;;;4.05;1.92;;;;;;;13.66;49.97;100210.63;5022745;28;20033;-67
2023/04/15 09:18:31;;;;;;;3.50;1.80;;;;;;;13.85;49.68;100232.59;5015475;28;20169;-64
2023/04/15 09:21:12;;;;;;;3.70;1.70;;;;;;;13.75;48.88;100211.22;5035714;28;20037;-66
2023/04/15 09:23:54;;;;;;;3.95;2.10;;;;;;;13.87;47.66;100195.25;5018050;28;20049;-65
2023/04/15 09:26:30;;;;;;;2.72;1.95;;;;;;;13.97;48.57;100214.88;5016807;28;20030;-66
2023/04/15 09:29:03;;;;;;;3.53;1.80;;;;;;;14.31;46.30;100173.06;5014102;28;20026;-66
2023/04/15 09:31:30;;;;;;;2.53;1.83;;;;;;;14.61;46.12;100182.47;5014413;28;20026;-66
2023/04/15 09:33:55;;;;;;;1.50;1.33;;;;;;;14.44;46.26;100196.94;5018675;28;20033;-66
2023/04/15 09:36:21;;;;;;;3.38;1.60;;;;;;;14.30;46.88;100227.72;5017570;28;20095;-66
2023/04/15 09:39:04;;;;;;;2.10;1.50;;;;;;;14.22;48.35;100253.94;5018929;28;20052;-66
2023/04/15 09:41:29;;;;;;;2.13;1.42;;;;;;;14.42;46.56;100224.75;5021226;28;20038;-67
2023/04/15 09:43:55;;;;;;;3.70;1.35;;;;;;;14.40;44.55;100187.53;5020114;28;20030;-67
2023/04/15 09:46:40;;;;;;;2.20;1.23;;;;;;;14.26;44.63;100195.75;5013759;28;20034;-64
2023/04/15 09:49:10;;;;;;;3.20;1.60;;;;;;;14.15;45.61;100218.66;5015550;28;20673;-66
2023/04/15 09:51:36;;;;;;;2.63;1.20;;;;;;;14.24;46.01;100233.97;5016295;28;20110;-67
2023/04/15 09:54:02;;;;;;;4.20;1.70;;;;;;;14.43;46.10;100226.44;5022861;28;20428;-67
2023/04/15 09:56:36;;;;;;;2.97;1.48;;;;;;;14.38;46.07;100246.53;5022593;28;20144;-68
2023/04/15 09:59:02;;;;;;;3.80;1.23;;;;;;;14.01;46.85;100254.59;5013424;28;20038;-65
2023/04/15 10:01:28;;;;;;;5.10;1.35;;;;;;;14.11;47.36;100266.41;5017998;28;20036;-66
2023/04/15 10:03:56;;;;;;;2.83;1.40;;;;;;;14.15;47.03;100256.78;5012135;28;20041;-66
2023/04/15 10:06:24;;;;;;;1.95;1.48;;;;;;;14.39;46.98;100264.72;5018128;28;20038;-67
2023/04/15 10:08:50;;;;;;;5.03;1.92;;;;;;;14.57;46.90;100261.47;5019544;28;20037;-66
2023/04/15 10:11:18;;;;;;;2.25;1.35;;;;;;;14.82;46.14;100258.94;5025724;28;20032;-66
2023/04/15 10:13:45;;;;;;;3.38;1.58;;;;;;;14.81;46.41;100256.41;5019778;28;20069;-66
2023/04/15 10:16:13;;;;;;;3.65;1.38;;;;;;;14.58;47.48;100272.75;5013969;28;20033;-66
2023/04/15 10:18:45;;;;;;;3.72;1.60;;;;;;;14.70;46.86;100267.16;5017614;28;20110;-66
2023/04/15 10:21:12;;;;;;;2.60;1.30;;;;;;;14.52;46.31;100260.78;5021877;28;20227;-66
2023/04/15 10:23:38;;;;;;;2.95;1.85;;;;;;;14.82;47.04;100269.34;5024981;28;20576;-66
2023/04/15 10:26:05;;;;;;;3.72;1.98;;;;;;;14.64;46.80;100270.81;5019123;28;20391;-67
2023/04/15 10:28:30;;;;;;;2.70;1.80;;;;;;;14.66;47.60;100294.19;5019043;28;20095;-66
2023/04/15 10:30:58;;;;;;;4.13;2.20;;;;;;;14.78;46.71;100275.53;5020564;28;20033;-66
2023/04/15 10:33:24;;;;;;;3.10;1.90;;;;;;;14.86;46.43;100265.75;5030968;28;20045;-66
2023/04/15 10:35:51;;;;;;;1.80;1.40;;;;;;;15.01;46.33;100261.78;5015851;28;20026;-67
2023/04/15 10:38:44;;;;;;;2.72;1.52;;;;;;;15.02;45.79;100263.44;5018264;28;20049;-67
2023/04/15 10:41:20;;;;;;;2.25;1.60;;;;;;;14.91;47.32;100291.59;5020328;28;20040;-65
2023/04/15 10:43:53;;;;;;;4.25;1.50;;;;;;;14.92;46.23;100280.31;5018032;28;20169;-67
2023/04/15 10:46:59;;;;;;;3.70;1.85;;;;;;;14.92;46.33;100278.56;5016788;28;20032;-66
2023/04/15 10:49:25;;;;;;;3.35;2.20;;;;;;;14.82;47.75;100321.38;4989678;28;20108;-67
2023/04/15 10:51:55;;;;;;;4.25;2.80;;;;;;;14.93;48.05;100321.88;4991804;28;20046;-69
2023/04/15 10:54:24;;;;;;;4.05;2.60;;;;;;;14.94;48.16;100334.00;5002934;28;20037;-68
2023/04/15 10:57:05;;;;;;;4.30;2.60;;;;;;;14.94;49.34;100353.97;5028851;28;20033;-68
2023/04/15 10:59:58;;;;;;;2.85;2.42;;;;;;;15.06;49.07;100350.94;5014023;28;20069;-66
2023/04/15 11:02:44;;;;;;;4.88;2.50;;;;;;;15.19;49.46;100362.66;5023924;28;20042;-68
2023/04/15 11:05:11;;;;;;;4.28;2.65;;;;;;;15.15;49.59;100369.72;5020684;28;20034;-69
2023/04/15 11:07:45;;;;;;;3.60;3.00;;;;;;;15.22;48.59;100344.34;5024442;28;20094;-68
2023/04/15 11:10:17;;;;;;;3.95;3.10;;;;;;;15.33;48.97;100347.41;5016953;28;20053;-69
2023/04/15 11:12:44;;;;;;;6.07;3.13;;;;;;;15.26;49.69;100378.91;5017014;28;20060;-68
2023/04/15 11:15:26;;;;;;;3.33;2.75;;;;;;;15.23;48.99;100348.63;5015105;28;20049;-68
2023/04/15 11:17:52;;;;;;;3.95;2.88;;;;;;;15.08;48.99;100368.22;5008199;28;20505;-69
2023/04/15 11:20:17;;;;;;;4.03;2.67;;;;;;;15.46;49.52;100363.47;5007211;28;20037;-69
2023/04/15 11:22:50;;;;;;;3.30;2.50;;;;;;;15.08;48.63;100368.22;5018452;28;20407;-69
2023/04/15 11:25:23;;;;;;;3.80;2.75;;;;;;;15.39;48.16;100362.84;5011462;28;20032;-68
2023/04/15 11:27:49;;;;;;;3.42;2.40;;;;;;;15.47;48.48;100359.97;5007207;28;20065;-66